Beechmont, Kentucky
Current Conditions -  °F | °C
As of 8:15 AM on Thursday 27 Nov 2014 (Local Time) from K2I0 Reporting Station
Overcast Overcast  
Wind Chill: -5°   Ceiling: 2300
Heat Index:   Visibility: 10mi
Dew Point: -3°   Wind: 14mph
Humidity: 78%   Direction: 340°NNW
Pressure: 30.39"   Gusts: NA
Location:  37.17°N, 87.04°W
Report Text: K2I0 271415Z AUTO 34012KT 10SM OVC023 00/M03 A3039 RMK AO2 T00041030
Loading
Personal Weather Stations






























Interactive Weather Map New forecast layout! Learn more

10-Day Weather Forecast

Advertisements
Track Severe Weather on mobile